Time;durP1;ratioP1;P1;durP2;ratioP2;P2;SDS_P1;SDS_P2;PMS_P1;PMS_P2;Temp;Humidity;BMP_temperature;BMP_pressure;BME280_temperature;BME280_humidity;BME280_pressure;Samples;Min_cycle;Max_cycle;Signal;HPM_P1;HPM_P2
2023/03/09 00:00:17;;;;;;;75.28;31.77;;;1.40;99.90;;;;;;5095976;28;20020;-67
2023/03/09 00:02:42;;;;;;;73.22;31.52;;;1.50;99.90;;;;;;5075950;28;20017;-67
2023/03/09 00:05:11;;;;;;;65.13;29.27;;;1.50;99.90;;;;;;5075200;28;20394;-67
2023/03/09 00:07:36;;;;;;;70.38;31.67;;;1.50;99.90;;;;;;5074563;28;20031;-68
2023/03/09 00:10:03;;;;;;;73.35;31.52;;;1.50;99.90;;;;;;5075841;28;20032;-67
2023/03/09 00:12:29;;;;;;;72.68;31.10;;;1.50;99.90;;;;;;5075712;28;20032;-67
2023/03/09 00:14:55;;;;;;;67.78;31.50;;;1.50;99.90;;;;;;5075506;28;20435;-67
2023/03/09 00:17:21;;;;;;;70.75;31.33;;;1.50;99.90;;;;;;5075313;28;20024;-67
2023/03/09 00:19:46;;;;;;;73.20;30.83;;;1.50;99.90;;;;;;5075527;28;20033;-67
2023/03/09 00:22:12;;;;;;;72.28;30.35;;;1.50;99.90;;;;;;5075556;28;20449;-67
2023/03/09 00:24:45;;;;;;;71.32;30.85;;;1.50;99.90;;;;;;5075372;28;20443;-67
2023/03/09 00:27:11;;;;;;;72.30;30.83;;;1.50;99.90;;;;;;5074994;28;20025;-67
2023/03/09 00:29:36;;;;;;;74.80;33.22;;;1.50;99.90;;;;;;5075356;28;20548;-67
2023/03/09 00:32:02;;;;;;;74.45;32.50;;;1.50;99.90;;;;;;5075013;28;20379;-67
2023/03/09 00:34:28;;;;;;;72.70;30.40;;;1.60;99.90;;;;;;5074945;28;20048;-67
2023/03/09 00:36:53;;;;;;;77.45;32.22;;;1.60;99.90;;;;;;5075304;28;20066;-67
2023/03/09 00:39:19;;;;;;;74.10;31.90;;;1.50;99.90;;;;;;5075250;28;20081;-67
2023/03/09 00:41:45;;;;;;;76.88;33.03;;;1.50;99.90;;;;;;5075199;28;20029;-67
2023/03/09 00:44:12;;;;;;;74.00;32.47;;;1.50;99.90;;;;;;5075148;28;20032;-67
2023/03/09 00:46:38;;;;;;;73.40;31.75;;;1.50;99.90;;;;;;5074916;28;20052;-67
2023/03/09 00:49:06;;;;;;;74.72;32.20;;;1.60;99.90;;;;;;5075083;28;20546;-67
2023/03/09 00:51:33;;;;;;;75.80;33.50;;;1.60;99.90;;;;;;5074483;28;20031;-67
2023/03/09 00:53:59;;;;;;;70.35;31.15;;;1.60;99.90;;;;;;5074497;28;20035;-67
2023/03/09 00:56:26;;;;;;;76.78;32.42;;;1.60;99.90;;;;;;5074843;28;20032;-67
2023/03/09 00:58:53;;;;;;;69.40;31.20;;;1.60;99.90;;;;;;5074681;28;20441;-67
2023/03/09 01:01:19;;;;;;;67.55;30.70;;;1.70;99.90;;;;;;5074718;28;20496;-67
2023/03/09 01:03:45;;;;;;;70.95;31.33;;;1.70;99.90;;;;;;5074330;28;20024;-67
2023/03/09 01:06:12;;;;;;;72.20;30.60;;;1.70;99.90;;;;;;5074614;28;20120;-67
2023/03/09 01:08:37;;;;;;;67.05;30.65;;;1.60;99.90;;;;;;5074754;28;20029;-67
2023/03/09 01:11:06;;;;;;;72.93;32.40;;;1.60;99.90;;;;;;5074415;28;20035;-67
2023/03/09 01:13:32;;;;;;;66.45;30.30;;;1.60;99.90;;;;;;5074274;28;20032;-67
2023/03/09 01:15:57;;;;;;;65.80;30.35;;;1.70;99.90;;;;;;5074640;28;20098;-67
2023/03/09 01:18:23;;;;;;;68.13;29.52;;;1.60;99.90;;;;;;5073177;28;20028;-67
2023/03/09 01:20:49;;;;;;;66.30;29.90;;;1.60;99.90;;;;;;5073997;28;20020;-67
2023/03/09 01:23:14;;;;;;;66.28;29.95;;;1.60;99.90;;;;;;5074300;28;20033;-67
2023/03/09 01:25:40;;;;;;;72.25;31.13;;;1.60;99.90;;;;;;5074321;28;20398;-67
2023/03/09 01:28:05;;;;;;;72.05;31.52;;;1.60;99.90;;;;;;5074250;28;20500;-67
2023/03/09 01:30:31;;;;;;;72.65;32.17;;;1.60;99.90;;;;;;5073884;28;20034;-68
2023/03/09 01:32:57;;;;;;;70.10;30.60;;;1.60;99.90;;;;;;5073680;28;20044;-67
2023/03/09 01:35:22;;;;;;;76.75;32.78;;;1.60;99.90;;;;;;5073734;28;20064;-67
2023/03/09 01:37:48;;;;;;;77.57;33.10;;;1.60;99.90;;;;;;5074070;28;20070;-67
2023/03/09 01:40:20;;;;;;;76.82;33.20;;;1.50;99.90;;;;;;5073979;28;20382;-67
2023/03/09 01:43:26;;;;;;;73.50;31.15;;;1.50;99.90;;;;;;5073536;28;20028;-67
2023/03/09 01:46:31;;;;;;;80.95;33.05;;;1.50;99.90;;;;;;5073737;28;20039;-67
2023/03/09 01:49:12;;;;;;;75.85;32.47;;;1.50;99.90;;;;;;5073823;28;20026;-67
2023/03/09 01:51:45;;;;;;;79.57;32.67;;;1.50;99.90;;;;;;5073420;28;20031;-67
2023/03/09 01:54:19;;;;;;;60.42;24.25;;;1.50;99.90;;;;;;5073583;28;20483;-67
2023/03/09 01:56:46;;;;;;;82.55;34.03;;;1.50;99.90;;;;;;5073737;28;20028;-67
2023/03/09 01:59:13;;;;;;;76.30;32.33;;;1.50;99.90;;;;;;5073772;28;20027;-67
2023/03/09 02:01:40;;;;;;;88.53;33.80;;;1.50;99.90;;;;;;5073743;28;20487;-67
2023/03/09 02:04:11;;;;;;;81.13;34.13;;;1.50;99.90;;;;;;5073469;28;20032;-67
2023/03/09 02:06:36;;;;;;;78.60;32.85;;;1.50;99.90;;;;;;5073187;28;20040;-67
2023/03/09 02:09:21;;;;;;;86.40;36.03;;;1.50;99.90;;;;;;5073556;28;20402;-67
2023/03/09 02:11:47;;;;;;;78.38;33.30;;;1.50;99.90;;;;;;5073504;28;20035;-67
2023/03/09 02:14:14;;;;;;;79.05;32.83;;;1.50;99.90;;;;;;5073318;28;20103;-67
2023/03/09 02:16:39;;;;;;;78.15;32.55;;;1.50;99.90;;;;;;5073469;28;20533;-67
2023/03/09 02:19:09;;;;;;;80.72;32.25;;;1.50;99.90;;;;;;5073507;28;20107;-67
2023/03/09 02:21:47;;;;;;;76.85;33.05;;;1.50;99.90;;;;;;5073455;28;20599;-67
2023/03/09 02:24:37;;;;;;;75.25;31.60;;;1.50;99.90;;;;;;5073461;28;20063;-67
2023/03/09 02:27:21;;;;;;;77.70;32.13;;;1.50;99.90;;;;;;5073326;28;20036;-67
2023/03/09 02:29:48;;;;;;;88.05;35.55;;;1.60;99.90;;;;;;5073158;28;20413;-67
2023/03/09 02:32:14;;;;;;;80.30;34.00;;;1.60;99.90;;;;;;5073258;28;20078;-67
2023/03/09 02:34:40;;;;;;;82.10;33.45;;;1.50;99.90;;;;;;5072723;28;20045;-67
2023/03/09 02:37:23;;;;;;;78.57;32.80;;;1.60;99.90;;;;;;5073309;28;20027;-67
2023/03/09 02:39:51;;;;;;;75.22;31.90;;;1.50;99.90;;;;;;5073259;28;20017;-67
2023/03/09 02:42:18;;;;;;;79.60;33.97;;;1.50;99.90;;;;;;5073257;28;20028;-67
2023/03/09 02:44:44;;;;;;;73.40;31.92;;;1.50;99.90;;;;;;5073230;28;20395;-67
2023/03/09 02:47:18;;;;;;;75.97;31.90;;;1.50;99.90;;;;;;5073218;28;20037;-67
2023/03/09 02:49:43;;;;;;;78.03;32.33;;;1.50;99.90;;;;;;5072730;28;20020;-67
2023/03/09 02:52:09;;;;;;;75.47;32.58;;;1.50;99.90;;;;;;5073271;28;20028;-67
2023/03/09 02:54:34;;;;;;;75.57;31.98;;;1.50;99.90;;;;;;5072833;28;20029;-67
2023/03/09 02:57:00;;;;;;;75.93;30.95;;;1.60;99.90;;;;;;5073409;28;20035;-67
2023/03/09 02:59:25;;;;;;;78.70;33.00;;;1.50;99.90;;;;;;5073169;28;20032;-67
2023/03/09 03:01:51;;;;;;;77.47;33.40;;;1.50;99.90;;;;;;5072957;28;20024;-67
2023/03/09 03:04:16;;;;;;;80.90;34.20;;;1.50;99.90;;;;;;5072861;28;20028;-67
2023/03/09 03:06:42;;;;;;;80.40;34.03;;;1.50;99.90;;;;;;5073007;28;20486;-67
2023/03/09 03:09:08;;;;;;;80.25;33.83;;;1.50;99.90;;;;;;5072967;28;20033;-67
2023/03/09 03:11:33;;;;;;;86.07;34.42;;;1.50;99.90;;;;;;5073086;28;20460;-67
2023/03/09 03:13:59;;;;;;;84.85;35.15;;;1.50;99.90;;;;;;5072984;28;20033;-67
2023/03/09 03:16:25;;;;;;;81.85;34.60;;;1.50;99.90;;;;;;5072702;28;20023;-67
2023/03/09 03:18:50;;;;;;;84.90;34.70;;;1.40;99.90;;;;;;5072873;28;20390;-67
2023/03/09 03:21:17;;;;;;;82.82;34.25;;;1.50;99.90;;;;;;5072668;28;20447;-67
2023/03/09 03:23:43;;;;;;;85.93;33.97;;;1.50;99.90;;;;;;5072787;28;20055;-67
2023/03/09 03:26:10;;;;;;;84.18;35.33;;;1.50;99.90;;;;;;5072679;28;20067;-67
2023/03/09 03:28:36;;;;;;;89.25;36.42;;;1.50;99.90;;;;;;5072812;28;20029;-67
2023/03/09 03:31:02;;;;;;;92.47;36.63;;;1.50;99.90;;;;;;5072729;28;20498;-67
2023/03/09 03:33:28;;;;;;;86.75;35.25;;;1.50;99.90;;;;;;5072469;28;20093;-67
2023/03/09 03:35:54;;;;;;;90.60;36.67;;;1.50;99.90;;;;;;5072720;28;20039;-67
2023/03/09 03:38:20;;;;;;;98.10;39.33;;;1.50;99.90;;;;;;5072556;28;20509;-67
2023/03/09 03:40:45;;;;;;;94.22;37.95;;;1.50;99.90;;;;;;5073078;28;20028;-67
2023/03/09 03:43:11;;;;;;;86.85;36.78;;;1.50;99.90;;;;;;5076249;28;20033;-67
2023/03/09 03:45:36;;;;;;;90.93;36.88;;;1.50;99.90;;;;;;5075871;28;20024;-67
2023/03/09 03:48:02;;;;;;;85.72;36.47;;;1.50;99.90;;;;;;5076197;28;20054;-67
2023/03/09 03:50:27;;;;;;;92.15;38.28;;;1.50;99.90;;;;;;5076112;28;20025;-67
2023/03/09 03:52:53;;;;;;;88.13;37.20;;;1.50;99.90;;;;;;5076041;28;20041;-67
2023/03/09 03:55:19;;;;;;;86.53;37.35;;;1.50;99.90;;;;;;5076090;28;20061;-67
2023/03/09 03:57:44;;;;;;;88.32;36.85;;;1.50;99.90;;;;;;5075989;28;20024;-67
2023/03/09 04:00:11;;;;;;;89.47;35.97;;;1.50;99.90;;;;;;5076028;28;20032;-67
2023/03/09 04:02:37;;;;;;;86.72;35.42;;;1.50;99.90;;;;;;5075947;28;20027;-67
2023/03/09 04:05:03;;;;;;;86.43;37.47;;;1.50;99.90;;;;;;5075869;28;20111;-67
2023/03/09 04:07:29;;;;;;;91.95;37.35;;;1.50;99.90;;;;;;5075922;28;20029;-67
2023/03/09 04:09:54;;;;;;;88.60;36.22;;;1.50;99.90;;;;;;5075787;28;20028;-67
2023/03/09 04:12:20;;;;;;;89.82;36.33;;;1.40;99.90;;;;;;5075651;28;20036;-67
2023/03/09 04:14:45;;;;;;;93.65;38.03;;;1.50;99.90;;;;;;5075465;28;20231;-67
2023/03/09 04:17:11;;;;;;;86.63;36.15;;;1.50;99.90;;;;;;5075716;28;20040;-67
2023/03/09 04:19:37;;;;;;;89.68;37.35;;;1.40;99.90;;;;;;5075679;28;20047;-67
2023/03/09 04:22:03;;;;;;;83.53;34.42;;;1.50;99.90;;;;;;5075446;28;20028;-67
2023/03/09 04:24:29;;;;;;;88.40;35.85;;;1.50;99.90;;;;;;5075711;28;20021;-67
2023/03/09 04:26:54;;;;;;;94.05;36.10;;;1.50;99.90;;;;;;5075496;28;20086;-67
2023/03/09 04:29:20;;;;;;;86.25;34.92;;;1.50;99.90;;;;;;5075480;28;20362;-67
2023/03/09 04:31:46;;;;;;;86.65;35.97;;;1.50;99.90;;;;;;5075312;28;20115;-67
2023/03/09 04:34:11;;;;;;;81.40;34.47;;;1.50;99.90;;;;;;5075133;28;20055;-67
2023/03/09 04:36:37;;;;;;;86.07;35.78;;;1.50;99.90;;;;;;5075322;28;20060;-67
2023/03/09 04:39:04;;;;;;;86.40;36.53;;;1.50;99.90;;;;;;5075295;28;20065;-67
2023/03/09 04:41:30;;;;;;;81.68;34.45;;;1.50;99.90;;;;;;5075304;28;20028;-67
2023/03/09 04:43:56;;;;;;;85.47;35.00;;;1.50;99.90;;;;;;5074944;28;20036;-67
2023/03/09 04:46:21;;;;;;;80.38;34.80;;;1.50;99.90;;;;;;5075094;28;20033;-67
2023/03/09 04:48:47;;;;;;;78.40;34.67;;;1.50;99.90;;;;;;5075061;28;20093;-67
2023/03/09 04:51:12;;;;;;;77.35;32.60;;;1.50;99.90;;;;;;5075130;28;20482;-67
2023/03/09 04:53:38;;;;;;;76.35;32.70;;;1.50;99.90;;;;;;5074833;28;20032;-67
2023/03/09 04:56:03;;;;;;;82.70;34.50;;;1.50;99.90;;;;;;5075037;28;20021;-67
2023/03/09 04:58:29;;;;;;;79.95;34.08;;;1.50;99.90;;;;;;5074826;28;20024;-67
2023/03/09 05:00:55;;;;;;;80.72;34.42;;;1.50;99.90;;;;;;5074821;28;20029;-67
2023/03/09 05:03:21;;;;;;;79.35;34.08;;;1.50;99.90;;;;;;5074791;28;20072;-67
2023/03/09 05:05:46;;;;;;;81.10;33.92;;;1.50;99.90;;;;;;5074655;28;20505;-67
2023/03/09 05:08:12;;;;;;;78.68;33.58;;;1.60;99.90;;;;;;5074716;28;20033;-67
2023/03/09 05:10:38;;;;;;;72.88;31.70;;;1.50;99.90;;;;;;5074749;28;20029;-67
2023/03/09 05:13:03;;;;;;;74.32;32.53;;;1.50;99.90;;;;;;5074428;28;20024;-67
2023/03/09 05:15:29;;;;;;;75.65;33.00;;;1.60;99.90;;;;;;5074659;28;20031;-67
2023/03/09 05:17:54;;;;;;;80.22;33.92;;;1.50;99.90;;;;;;5074402;28;20021;-67
2023/03/09 05:20:21;;;;;;;76.60;32.72;;;1.50;99.90;;;;;;5074285;28;20043;-67
2023/03/09 05:22:46;;;;;;;77.40;33.03;;;1.50;99.90;;;;;;5074258;28;20021;-67
2023/03/09 05:25:12;;;;;;;73.43;31.88;;;1.50;99.90;;;;;;5073884;28;20028;-67
2023/03/09 05:27:38;;;;;;;77.72;33.15;;;1.50;99.90;;;;;;5074204;28;20032;-67
2023/03/09 05:30:04;;;;;;;71.88;31.20;;;1.50;99.90;;;;;;5074258;28;20077;-67
2023/03/09 05:32:29;;;;;;;73.13;31.92;;;1.50;99.90;;;;;;5073706;28;20405;-67
2023/03/09 05:34:55;;;;;;;78.63;33.45;;;1.50;99.90;;;;;;5073822;28;20038;-67
2023/03/09 05:37:20;;;;;;;81.35;34.80;;;1.50;99.90;;;;;;5073849;28;20030;-67
2023/03/09 05:39:46;;;;;;;78.60;34.08;;;1.50;99.90;;;;;;5073777;28;20024;-67
2023/03/09 05:42:11;;;;;;;75.32;31.83;;;1.50;99.90;;;;;;5073982;28;20377;-67
2023/03/09 05:44:37;;;;;;;80.55;33.55;;;1.50;99.90;;;;;;5074001;28;20101;-67
2023/03/09 05:47:03;;;;;;;77.22;32.13;;;1.50;99.90;;;;;;5074000;28;20505;-67
2023/03/09 05:49:30;;;;;;;79.68;33.80;;;1.50;99.90;;;;;;5073851;28;20029;-67
2023/03/09 05:51:55;;;;;;;74.85;31.23;;;1.50;99.90;;;;;;5073545;28;20115;-67
2023/03/09 05:54:22;;;;;;;82.00;33.58;;;1.50;99.90;;;;;;5073579;28;20123;-67
2023/03/09 05:56:48;;;;;;;75.78;32.00;;;1.50;99.90;;;;;;5073337;28;20017;-67
2023/03/09 05:59:13;;;;;;;76.78;34.25;;;1.50;99.90;;;;;;5073724;28;20439;-67
2023/03/09 06:01:39;;;;;;;84.68;34.10;;;1.50;99.90;;;;;;5073695;28;20055;-67
2023/03/09 06:04:05;;;;;;;84.55;34.28;;;1.50;99.90;;;;;;5073297;28;20152;-67
2023/03/09 06:06:30;;;;;;;80.35;33.25;;;1.50;99.90;;;;;;5073718;28;20535;-67
2023/03/09 06:08:56;;;;;;;81.80;33.78;;;1.60;99.90;;;;;;5073473;28;20029;-67
2023/03/09 06:11:22;;;;;;;83.55;35.85;;;1.60;99.90;;;;;;5073529;28;20037;-67
2023/03/09 06:13:47;;;;;;;82.30;32.85;;;1.50;99.90;;;;;;5073403;28;20166;-67
2023/03/09 06:16:15;;;;;;;84.00;34.22;;;1.50;99.90;;;;;;5073531;28;20024;-67
2023/03/09 06:18:42;;;;;;;80.75;33.45;;;1.60;99.90;;;;;;5073587;28;20032;-67
2023/03/09 06:21:08;;;;;;;80.72;32.45;;;1.60;99.90;;;;;;5073284;28;20023;-67
2023/03/09 06:23:36;;;;;;;81.88;33.83;;;1.60;99.90;;;;;;5073337;28;20059;-67
2023/03/09 06:26:03;;;;;;;80.30;32.85;;;1.60;99.90;;;;;;5073036;28;20101;-67
2023/03/09 06:28:29;;;;;;;81.13;33.90;;;1.60;99.90;;;;;;5073404;28;20389;-67
2023/03/09 06:30:54;;;;;;;79.57;33.30;;;1.60;99.90;;;;;;5073344;28;20107;-67
2023/03/09 06:33:20;;;;;;;79.25;34.25;;;1.60;99.90;;;;;;5072937;28;20059;-67
2023/03/09 06:35:45;;;;;;;73.70;32.15;;;1.70;99.90;;;;;;5073284;28;20033;-67
2023/03/09 06:38:11;;;;;;;76.05;32.30;;;1.60;99.90;;;;;;5073162;28;20074;-67
2023/03/09 06:40:37;;;;;;;75.70;33.88;;;1.70;99.90;;;;;;5073276;28;20021;-67
2023/03/09 06:43:02;;;;;;;75.78;32.33;;;1.70;99.90;;;;;;5073319;28;20032;-67
2023/03/09 06:45:28;;;;;;;71.60;31.67;;;1.70;99.90;;;;;;5073231;28;20082;-67
2023/03/09 06:47:55;;;;;;;69.15;30.73;;;1.70;99.90;;;;;;5073022;28;20044;-67
2023/03/09 06:50:21;;;;;;;73.75;32.58;;;1.80;99.90;;;;;;5072910;28;20020;-67
2023/03/09 06:52:47;;;;;;;76.85;33.28;;;1.80;99.90;;;;;;5073083;28;20020;-67
2023/03/09 06:55:12;;;;;;;72.18;32.67;;;1.80;99.90;;;;;;5072538;28;20039;-67
2023/03/09 06:57:38;;;;;;;75.32;33.30;;;1.80;99.90;;;;;;5073137;28;20107;-67
2023/03/09 07:00:04;;;;;;;76.50;33.50;;;1.90;99.90;;;;;;5072880;28;20071;-67
2023/03/09 07:02:31;;;;;;;76.47;33.30;;;1.90;99.90;;;;;;5073170;28;20063;-67
2023/03/09 07:04:56;;;;;;;73.15;32.70;;;2.00;99.90;;;;;;5072782;28;20033;-67
2023/03/09 07:07:22;;;;;;;75.28;33.35;;;2.00;99.90;;;;;;5072722;28;20135;-67
2023/03/09 07:09:47;;;;;;;73.00;33.72;;;2.10;99.90;;;;;;5072878;28;20498;-67
2023/03/09 07:12:13;;;;;;;69.35;33.50;;;2.10;99.90;;;;;;5072758;28;20055;-67
2023/03/09 07:14:39;;;;;;;71.15;32.80;;;2.10;99.90;;;;;;5058772;28;20037;-67
2023/03/09 07:17:04;;;;;;;67.78;31.10;;;2.10;99.90;;;;;;5055550;28;20037;-67
2023/03/09 07:19:30;;;;;;;71.97;32.63;;;2.10;99.90;;;;;;5069169;28;20461;-67
2023/03/09 07:21:56;;;;;;;70.07;31.60;;;2.10;99.90;;;;;;5073696;28;20035;-67
2023/03/09 07:24:21;;;;;;;73.32;31.95;;;2.10;99.90;;;;;;5064718;28;20036;-66
2023/03/09 07:26:48;;;;;;;70.93;33.10;;;2.10;99.90;;;;;;5056145;28;20029;-67
2023/03/09 07:29:14;;;;;;;66.47;31.85;;;2.20;99.90;;;;;;5056223;28;20037;-66
2023/03/09 07:31:40;;;;;;;68.45;31.88;;;2.20;99.90;;;;;;5058867;28;20467;-67
2023/03/09 07:34:06;;;;;;;66.35;30.38;;;2.20;99.90;;;;;;5072755;28;20512;-66
2023/03/09 07:36:31;;;;;;;65.82;31.02;;;2.30;99.90;;;;;;5074292;28;20103;-67
2023/03/09 07:38:57;;;;;;;72.97;32.40;;;2.30;99.90;;;;;;5069622;28;20037;-67
2023/03/09 07:41:22;;;;;;;67.82;31.48;;;2.30;99.90;;;;;;5071119;28;20397;-66
2023/03/09 07:43:48;;;;;;;71.97;31.60;;;2.30;99.90;;;;;;5075106;28;20036;-65
2023/03/09 07:46:15;;;;;;;72.90;32.17;;;2.30;99.90;;;;;;5074300;28;20029;-66
2023/03/09 07:48:41;;;;;;;65.97;30.30;;;2.30;99.90;;;;;;5059490;28;20066;-65
2023/03/09 07:51:07;;;;;;;67.95;30.25;;;2.40;99.90;;;;;;5072727;28;20104;-65
2023/03/09 07:53:34;;;;;;;68.13;31.88;;;2.30;99.90;;;;;;5075520;28;20025;-65
2023/03/09 07:56:03;;;;;;;66.65;30.77;;;2.40;99.90;;;;;;5075826;28;20535;-65
2023/03/09 07:58:29;;;;;;;71.40;31.58;;;2.30;99.90;;;;;;5075828;28;20089;-65
2023/03/09 08:00:56;;;;;;;70.35;30.88;;;2.30;99.90;;;;;;5071533;28;20029;-65
2023/03/09 08:03:22;;;;;;;71.15;31.60;;;2.40;99.90;;;;;;5055670;28;20025;-65
2023/03/09 08:05:49;;;;;;;78.82;32.80;;;2.30;99.90;;;;;;5054301;28;20482;-65
2023/03/09 08:08:16;;;;;;;77.68;31.48;;;2.40;99.90;;;;;;5061301;28;20136;-65
2023/03/09 08:10:47;;;;;;;72.47;31.80;;;2.40;99.90;;;;;;5055964;28;20032;-65
2023/03/09 08:13:13;;;;;;;70.60;30.48;;;2.40;99.90;;;;;;5062455;28;20067;-65
2023/03/09 08:15:39;;;;;;;71.40;31.35;;;2.40;99.90;;;;;;5063440;28;20517;-65
2023/03/09 08:18:06;;;;;;;69.53;31.65;;;2.40;99.90;;;;;;5065931;28;20108;-65
2023/03/09 08:20:31;;;;;;;75.15;33.25;;;2.40;99.90;;;;;;5073682;28;20024;-69
2023/03/09 08:22:57;;;;;;;68.40;30.15;;;2.50;99.90;;;;;;5075473;28;20028;-66
2023/03/09 08:25:22;;;;;;;75.20;31.88;;;2.50;99.90;;;;;;5073316;28;20040;-66
2023/03/09 08:27:48;;;;;;;73.45;32.40;;;2.60;99.90;;;;;;5073023;28;20089;-67
2023/03/09 08:30:16;;;;;;;71.93;31.83;;;2.60;99.90;;;;;;5057628;28;20033;-66
2023/03/09 08:32:44;;;;;;;79.55;32.30;;;2.60;99.90;;;;;;5075172;28;20044;-66
2023/03/09 08:35:09;;;;;;;75.28;31.08;;;2.60;99.90;;;;;;5072574;28;20029;-67
2023/03/09 08:37:35;;;;;;;73.00;31.33;;;2.70;99.90;;;;;;5071001;28;20478;-66
2023/03/09 08:40:00;;;;;;;65.45;30.80;;;2.80;99.90;;;;;;5066837;28;20025;-66
2023/03/09 08:42:26;;;;;;;73.10;31.42;;;2.80;99.90;;;;;;5056269;28;20025;-67
2023/03/09 08:44:52;;;;;;;67.05;31.38;;;2.90;99.90;;;;;;5069710;28;20041;-67
2023/03/09 08:47:17;;;;;;;71.13;30.02;;;2.90;99.90;;;;;;5073989;28;20093;-68
2023/03/09 08:49:43;;;;;;;66.45;28.58;;;2.90;99.90;;;;;;5073953;28;20440;-66
2023/03/09 08:52:09;;;;;;;61.97;27.52;;;3.00;99.90;;;;;;5074368;28;20021;-67
2023/03/09 08:54:34;;;;;;;64.72;28.92;;;3.10;99.90;;;;;;5070061;28;20032;-68
2023/03/09 08:57:00;;;;;;;63.22;27.42;;;3.10;99.90;;;;;;5072915;28;20038;-67
2023/03/09 08:59:25;;;;;;;63.50;29.55;;;3.10;99.90;;;;;;5057838;28;20025;-66
2023/03/09 09:01:51;;;;;;;62.85;30.05;;;3.20;99.90;;;;;;5054460;28;20071;-66
2023/03/09 09:04:17;;;;;;;64.30;28.27;;;3.10;99.90;;;;;;5060314;28;20052;-66
2023/03/09 09:06:42;;;;;;;69.00;30.45;;;3.20;99.90;;;;;;5073252;28;20551;-67
2023/03/09 09:09:08;;;;;;;66.30;29.05;;;3.20;99.90;;;;;;5062139;28;20036;-66
2023/03/09 09:11:34;;;;;;;66.10;28.73;;;3.20;99.90;;;;;;5054629;28;20025;-67
2023/03/09 09:13:59;;;;;;;65.32;30.00;;;3.20;99.90;;;;;;5070941;28;20402;-66
2023/03/09 09:16:28;;;;;;;66.43;28.40;;;3.30;99.90;;;;;;5074467;28;20492;-67
2023/03/09 09:18:54;;;;;;;63.70;28.55;;;3.40;99.90;;;;;;5064033;28;20415;-67
2023/03/09 09:21:20;;;;;;;54.72;26.23;;;3.40;99.90;;;;;;5068788;28;20027;-68
2023/03/09 09:23:46;;;;;;;56.17;26.48;;;3.30;99.90;;;;;;5071459;28;20439;-67
2023/03/09 09:26:14;;;;;;;57.78;26.30;;;3.40;99.90;;;;;;5061169;28;20403;-67
2023/03/09 09:28:40;;;;;;;57.00;25.52;;;3.40;99.90;;;;;;5054332;28;20064;-67
2023/03/09 09:31:07;;;;;;;59.80;27.48;;;3.40;99.90;;;;;;5056863;28;20074;-68
2023/03/09 09:33:33;;;;;;;60.50;27.52;;;3.50;99.90;;;;;;5055985;28;20495;-67
2023/03/09 09:36:10;;;;;;;58.03;27.05;;;3.40;99.90;;;;;;5071942;28;20032;-67
2023/03/09 09:38:37;;;;;;;61.17;27.95;;;3.50;99.90;;;;;;5068549;28;20380;-68
2023/03/09 09:41:07;;;;;;;53.83;25.48;;;3.60;99.90;;;;;;5067663;28;20036;-67
2023/03/09 09:43:34;;;;;;;58.88;27.02;;;3.60;99.90;;;;;;5063134;28;20028;-67
2023/03/09 09:46:02;;;;;;;58.78;27.35;;;3.50;99.90;;;;;;5059164;28;20029;-67
2023/03/09 09:48:29;;;;;;;56.70;26.58;;;3.50;99.90;;;;;;5072588;28;20039;-67
2023/03/09 09:51:17;;;;;;;59.97;26.10;;;3.60;99.90;;;;;;5059267;28;20033;-67
2023/03/09 09:54:02;;;;;;;52.63;24.85;;;3.70;99.90;;;;;;5059774;28;20037;-69
2023/03/09 09:56:46;;;;;;;53.65;24.08;;;3.60;99.90;;;;;;5065898;28;20029;-67
2023/03/09 09:59:15;;;;;;;;;;;3.50;99.90;;;;;;5056179;28;20025;-67
2023/03/09 10:02:15;;;;;;;51.85;23.88;;;3.60;99.90;;;;;;5063234;28;19908;-67
2023/03/09 10:04:46;;;;;;;50.80;23.85;;;3.80;99.90;;;;;;5069502;28;20020;-67
2023/03/09 10:07:15;;;;;;;48.78;22.42;;;3.90;99.90;;;;;;5063202;28;20027;-67
2023/03/09 10:09:45;;;;;;;47.47;22.92;;;4.00;99.90;;;;;;5062213;28;20090;-67
2023/03/09 10:12:14;;;;;;;53.30;24.33;;;4.10;99.90;;;;;;5067315;28;20078;-67
2023/03/09 10:15:04;;;;;;;47.22;23.23;;;4.10;99.90;;;;;;5069944;28;20067;-68
2023/03/09 10:17:42;;;;;;;52.40;24.92;;;3.90;99.90;;;;;;5055444;28;20108;-67
2023/03/09 10:20:17;;;;;;;48.58;24.33;;;4.10;99.90;;;;;;5064829;28;20404;-68
2023/03/09 10:22:47;;;;;;;52.65;25.17;;;4.10;99.90;;;;;;5053047;28;20510;-68
2023/03/09 10:25:16;;;;;;;55.30;24.80;;;4.10;99.90;;;;;;5066865;28;20031;-67
2023/03/09 10:27:47;;;;;;;51.35;25.17;;;4.00;99.90;;;;;;5067402;28;20070;-68
2023/03/09 10:30:25;;;;;;;53.10;24.77;;;4.10;99.90;;;;;;5068373;28;20067;-67
2023/03/09 10:32:57;;;;;;;44.25;21.38;;;4.10;99.90;;;;;;5058507;28;20071;-68
2023/03/09 10:35:47;;;;;;;52.05;24.48;;;4.10;99.90;;;;;;5052548;28;20536;-67
2023/03/09 10:38:14;;;;;;;50.30;23.63;;;3.90;99.90;;;;;;5064951;28;20032;-67
2023/03/09 10:40:43;;;;;;;50.95;23.75;;;3.90;99.90;;;;;;5069281;28;20028;-67
2023/03/09 10:43:23;;;;;;;53.45;23.92;;;4.10;99.90;;;;;;5067052;28;20524;-67
2023/03/09 10:45:49;;;;;;;46.90;22.80;;;;;;;;;;5072940;28;20474;-67
2023/03/09 10:48:27;;;;;;;52.53;24.70;;;;;;;;;;5070150;28;20100;-67
2023/03/09 10:50:58;;;;;;;50.08;24.23;;;;;;;;;;5069670;28;20060;-67
2023/03/09 10:53:27;;;;;;;45.95;24.23;;;;;;;;;;5074424;28;20482;-67
2023/03/09 10:55:57;;;;;;;45.92;22.98;;;4.80;99.90;;;;;;5059977;28;20402;-71
2023/03/09 10:58:26;;;;;;;45.78;22.92;;;5.00;99.90;;;;;;5069601;28;20115;-67
2023/03/09 11:01:02;;;;;;;45.15;22.92;;;5.00;99.90;;;;;;5070315;28;20031;-67
2023/03/09 11:03:38;;;;;;;43.45;22.08;;;4.90;99.90;;;;;;5058817;28;20500;-68
2023/03/09 11:06:19;;;;;;;47.00;23.63;;;4.60;99.90;;;;;;5072822;28;20405;-68
2023/03/09 11:08:59;;;;;;;47.30;23.15;;;4.40;99.90;;;;;;5071620;28;20024;-67
2023/03/09 11:11:27;;;;;;;47.53;23.17;;;4.40;99.90;;;;;;5064135;28;20049;-67
2023/03/09 11:13:53;;;;;;;48.25;24.20;;;4.50;99.90;;;;;;5064766;28;20076;-67
2023/03/09 11:16:23;;;;;;;49.30;24.75;;;4.70;99.90;;;;;;5062225;28;20029;-67
2023/03/09 11:19:03;;;;;;;52.72;24.17;;;4.70;99.90;;;;;;5056080;28;20029;-67
2023/03/09 11:21:29;;;;;;;55.15;26.88;;;4.70;99.90;;;;;;5055589;28;20028;-67
2023/03/09 11:23:54;;;;;;;51.17;25.55;;;4.70;99.90;;;;;;5073349;28;20024;-67
2023/03/09 11:26:40;;;;;;;54.78;25.77;;;4.70;99.90;;;;;;5072398;28;20081;-69
2023/03/09 11:29:29;;;;;;;62.83;33.55;;;4.40;99.90;;;;;;5056397;28;20029;-67
2023/03/09 11:31:55;;;;;;;55.20;26.67;;;4.40;99.90;;;;;;5059524;28;20024;-67
2023/03/09 11:34:39;;;;;;;67.32;35.72;;;4.50;99.90;;;;;;5074763;28;20048;-67
2023/03/09 11:37:15;;;;;;;57.80;28.20;;;4.40;99.90;;;;;;5074261;28;20478;-68
2023/03/09 11:39:49;;;;;;;57.63;26.80;;;4.50;99.90;;;;;;5060690;28;20044;-67
2023/03/09 11:42:21;;;;;;;62.20;27.38;;;4.40;99.90;;;;;;5059310;28;20021;-67
2023/03/09 11:44:48;;;;;;;56.70;25.88;;;4.40;99.90;;;;;;5074382;28;20028;-67
2023/03/09 11:47:28;;;;;;;57.95;25.70;;;4.40;99.90;;;;;;5075138;28;20474;-68
2023/03/09 11:49:59;;;;;;;58.20;27.15;;;4.40;99.90;;;;;;5075318;28;20030;-67
2023/03/09 11:52:33;;;;;;;56.85;26.73;;;4.50;99.90;;;;;;5070203;28;20493;-67
2023/03/09 11:55:04;;;;;;;59.20;27.42;;;4.60;99.90;;;;;;5055639;28;20029;-67
2023/03/09 11:57:33;;;;;;;59.00;27.10;;;4.60;99.90;;;;;;5055913;28;20025;-67
2023/03/09 12:00:05;;;;;;;63.05;27.95;;;4.50;99.90;;;;;;5055049;28;20053;-68
2023/03/09 12:02:44;;;;;;;61.38;27.58;;;4.40;99.90;;;;;;5054344;28;20096;-67
2023/03/09 12:05:12;;;;;;;56.17;25.67;;;4.40;99.90;;;;;;5055627;28;20033;-68
2023/03/09 12:08:03;;;;;;;58.55;27.42;;;4.50;99.90;;;;;;5055591;28;20033;-68
2023/03/09 12:10:46;;;;;;;62.15;27.33;;;4.60;99.90;;;;;;5055667;28;20116;-68
2023/03/09 12:13:24;;;;;;;54.20;25.00;;;4.80;99.90;;;;;;5055766;28;20120;-68
2023/03/09 12:16:00;;;;;;;54.38;24.55;;;4.80;99.90;;;;;;5055668;28;20029;-67
2023/03/09 12:18:31;;;;;;;54.75;25.85;;;4.80;99.90;;;;;;5055521;28;20029;-67
2023/03/09 12:20:59;;;;;;;78.40;34.03;;;4.80;99.90;;;;;;5055352;28;20384;-68
2023/03/09 12:23:42;;;;;;;60.92;26.48;;;4.70;99.90;;;;;;5055420;28;20025;-67
2023/03/09 12:26:20;;;;;;;62.95;29.95;;;4.90;99.90;;;;;;5055524;28;20056;-67
2023/03/09 12:32:30;;;;;;;52.38;25.63;;;5.30;99.90;;;;;;5111057;27;20441;-68
2023/03/09 12:34:58;;;;;;;50.42;24.95;;;5.40;99.90;;;;;;5110997;28;20036;-68
2023/03/09 12:45:51;;;;;;;52.63;26.13;;;5.40;99.90;;;;;;5111033;27;20386;-67
2023/03/09 12:48:24;;;;;;;56.72;27.83;;;5.20;99.90;;;;;;5110964;28;20515;-68
2023/03/09 12:50:58;;;;;;;;;;;5.10;99.90;;;;;;5111596;28;20035;-68
2023/03/09 12:53:27;;;;;;;51.55;24.77;;;5.00;99.90;;;;;;5111020;28;20425;-67
2023/03/09 12:55:56;;;;;;;60.63;28.90;;;4.90;99.90;;;;;;5111014;28;20441;-67